sensor_id;sensor_type;location;lat;lon;timestamp;pressure;altitude;pressure_sealevel;temperature;humidity
78894;BME280;68282;42.698;23.350;2023-12-29T00:01:29;96191.13;;;5.52;61.69
78894;BME280;68282;42.698;23.350;2023-12-29T00:03:55;96186.00;;;5.57;61.31
78894;BME280;68282;42.698;23.350;2023-12-29T00:06:21;96179.50;;;5.52;61.45
78894;BME280;68282;42.698;23.350;2023-12-29T00:08:46;96186.97;;;5.50;61.34
78894;BME280;68282;42.698;23.350;2023-12-29T00:11:21;96181.06;;;5.46;61.57
78894;BME280;68282;42.698;23.350;2023-12-29T00:13:47;96189.38;;;5.45;61.33
78894;BME280;68282;42.698;23.350;2023-12-29T00:16:14;96172.91;;;5.39;61.10
78894;BME280;68282;42.698;23.350;2023-12-29T00:18:40;96158.31;;;5.34;60.79
78894;BME280;68282;42.698;23.350;2023-12-29T00:21:05;96177.34;;;5.32;60.77
78894;BME280;68282;42.698;23.350;2023-12-29T00:23:31;96191.69;;;5.33;60.94
78894;BME280;68282;42.698;23.350;2023-12-29T00:25:57;96197.91;;;5.33;60.96
78894;BME280;68282;42.698;23.350;2023-12-29T00:28:22;96193.44;;;5.25;61.44
78894;BME280;68282;42.698;23.350;2023-12-29T00:30:48;96186.00;;;5.28;61.49
78894;BME280;68282;42.698;23.350;2023-12-29T00:33:14;96187.47;;;5.30;61.34
78894;BME280;68282;42.698;23.350;2023-12-29T00:35:39;96183.50;;;5.26;61.10
78894;BME280;68282;42.698;23.350;2023-12-29T00:38:05;96186.00;;;5.28;61.43
78894;BME280;68282;42.698;23.350;2023-12-29T00:40:33;96177.13;;;5.19;61.36
78894;BME280;68282;42.698;23.350;2023-12-29T00:43:00;96177.69;;;5.14;61.26
78894;BME280;68282;42.698;23.350;2023-12-29T00:45:26;96175.50;;;5.18;61.30
78894;BME280;68282;42.698;23.350;2023-12-29T00:47:55;96174.09;;;5.22;60.87
78894;BME280;68282;42.698;23.350;2023-12-29T00:50:21;96165.72;;;5.17;60.65
78894;BME280;68282;42.698;23.350;2023-12-29T00:52:46;96179.66;;;5.20;61.18
78894;BME280;68282;42.698;23.350;2023-12-29T00:55:12;96166.78;;;5.07;61.25
78894;BME280;68282;42.698;23.350;2023-12-29T00:57:37;96167.28;;;5.11;60.96
78894;BME280;68282;42.698;23.350;2023-12-29T01:00:03;96170.63;;;5.13;61.12
78894;BME280;68282;42.698;23.350;2023-12-29T01:02:28;96181.31;;;5.06;61.33
78894;BME280;68282;42.698;23.350;2023-12-29T01:04:54;96174.16;;;4.99;61.24
78894;BME280;68282;42.698;23.350;2023-12-29T01:07:19;96151.72;;;4.98;60.83
78894;BME280;68282;42.698;23.350;2023-12-29T01:09:45;96173.03;;;5.08;60.49
78894;BME280;68282;42.698;23.350;2023-12-29T01:12:10;96168.38;;;5.02;60.81
78894;BME280;68282;42.698;23.350;2023-12-29T01:14:36;96174.88;;;5.07;60.54
78894;BME280;68282;42.698;23.350;2023-12-29T01:17:02;96171.59;;;4.97;61.14
78894;BME280;68282;42.698;23.350;2023-12-29T01:19:27;96174.59;;;5.02;61.12
78894;BME280;68282;42.698;23.350;2023-12-29T01:21:53;96172.72;;;4.88;61.31
78894;BME280;68282;42.698;23.350;2023-12-29T01:24:18;96176.72;;;4.92;61.20
78894;BME280;68282;42.698;23.350;2023-12-29T01:26:44;96177.75;;;4.91;61.44
78894;BME280;68282;42.698;23.350;2023-12-29T01:29:09;96155.06;;;4.85;61.16
78894;BME280;68282;42.698;23.350;2023-12-29T01:31:35;96169.47;;;4.92;61.25
78894;BME280;68282;42.698;23.350;2023-12-29T01:34:00;96172.91;;;4.86;61.06
78894;BME280;68282;42.698;23.350;2023-12-29T01:36:26;96166.84;;;4.84;61.04
78894;BME280;68282;42.698;23.350;2023-12-29T01:38:51;96171.41;;;4.84;61.42
78894;BME280;68282;42.698;23.350;2023-12-29T01:41:20;96171.28;;;4.77;61.26
78894;BME280;68282;42.698;23.350;2023-12-29T01:46:40;96186.72;;;4.83;61.44
78894;BME280;68282;42.698;23.350;2023-12-29T01:49:05;96169.34;;;4.86;61.62
78894;BME280;68282;42.698;23.350;2023-12-29T01:51:32;96171.22;;;4.85;61.56
78894;BME280;68282;42.698;23.350;2023-12-29T01:53:58;96154.13;;;4.78;60.87
78894;BME280;68282;42.698;23.350;2023-12-29T01:56:24;96168.88;;;4.82;61.23
78894;BME280;68282;42.698;23.350;2023-12-29T01:58:51;96152.97;;;4.72;60.86
78894;BME280;68282;42.698;23.350;2023-12-29T02:01:18;96149.44;;;4.72;60.62
78894;BME280;68282;42.698;23.350;2023-12-29T02:03:44;96156.97;;;4.76;60.97
78894;BME280;68282;42.698;23.350;2023-12-29T02:06:12;96154.66;;;4.73;60.87
78894;BME280;68282;42.698;23.350;2023-12-29T02:08:38;96163.38;;;4.75;61.04
78894;BME280;68282;42.698;23.350;2023-12-29T02:11:04;96158.66;;;4.77;60.92
78894;BME280;68282;42.698;23.350;2023-12-29T02:13:30;96168.22;;;4.80;60.33
78894;BME280;68282;42.698;23.350;2023-12-29T02:16:00;96139.88;;;4.69;60.99
78894;BME280;68282;42.698;23.350;2023-12-29T02:18:30;96138.00;;;4.70;60.82
78894;BME280;68282;42.698;23.350;2023-12-29T02:20:58;96130.28;;;4.67;60.74
78894;BME280;68282;42.698;23.350;2023-12-29T02:23:25;96146.38;;;4.75;60.71
78894;BME280;68282;42.698;23.350;2023-12-29T02:25:51;96136.16;;;4.70;60.99
78894;BME280;68282;42.698;23.350;2023-12-29T02:28:25;96143.75;;;4.67;61.06
78894;BME280;68282;42.698;23.350;2023-12-29T02:31:09;96144.34;;;4.77;61.05
78894;BME280;68282;42.698;23.350;2023-12-29T02:33:40;96131.59;;;4.71;61.03
78894;BME280;68282;42.698;23.350;2023-12-29T02:36:07;96123.97;;;4.74;60.32
78894;BME280;68282;42.698;23.350;2023-12-29T02:38:33;96118.00;;;4.64;60.36
78894;BME280;68282;42.698;23.350;2023-12-29T02:40:59;96129.09;;;4.69;60.25
78894;BME280;68282;42.698;23.350;2023-12-29T02:43:26;96119.88;;;4.63;59.66
78894;BME280;68282;42.698;23.350;2023-12-29T02:45:52;96113.34;;;4.58;59.61
78894;BME280;68282;42.698;23.350;2023-12-29T02:48:17;96119.31;;;4.68;59.36
78894;BME280;68282;42.698;23.350;2023-12-29T02:50:43;96103.41;;;4.58;60.10
78894;BME280;68282;42.698;23.350;2023-12-29T02:53:08;96104.72;;;4.62;60.13
78894;BME280;68282;42.698;23.350;2023-12-29T02:55:34;96101.91;;;4.56;59.90
78894;BME280;68282;42.698;23.350;2023-12-29T02:57:59;96101.75;;;4.57;59.80
78894;BME280;68282;42.698;23.350;2023-12-29T03:00:25;96104.97;;;4.53;60.05
78894;BME280;68282;42.698;23.350;2023-12-29T03:02:51;96106.16;;;4.50;59.98
78894;BME280;68282;42.698;23.350;2023-12-29T03:05:16;96100.97;;;4.48;60.18
78894;BME280;68282;42.698;23.350;2023-12-29T03:07:42;96100.00;;;4.41;59.98
78894;BME280;68282;42.698;23.350;2023-12-29T03:10:08;96089.78;;;4.37;60.30
78894;BME280;68282;42.698;23.350;2023-12-29T03:12:34;96088.94;;;4.36;60.53
78894;BME280;68282;42.698;23.350;2023-12-29T03:15:03;96084.38;;;4.37;59.99
78894;BME280;68282;42.698;23.350;2023-12-29T03:17:28;96088.28;;;4.34;60.86
78894;BME280;68282;42.698;23.350;2023-12-29T03:19:54;96081.06;;;4.35;61.18
78894;BME280;68282;42.698;23.350;2023-12-29T03:22:19;96078.53;;;4.33;61.65
78894;BME280;68282;42.698;23.350;2023-12-29T03:24:47;96092.31;;;4.38;61.20
78894;BME280;68282;42.698;23.350;2023-12-29T03:27:12;96087.94;;;4.37;61.29
78894;BME280;68282;42.698;23.350;2023-12-29T03:29:38;96077.50;;;4.34;60.98
78894;BME280;68282;42.698;23.350;2023-12-29T03:32:04;96084.56;;;4.35;60.90
78894;BME280;68282;42.698;23.350;2023-12-29T03:34:29;96085.03;;;4.39;60.98
78894;BME280;68282;42.698;23.350;2023-12-29T03:36:56;96080.50;;;4.39;60.85
78894;BME280;68282;42.698;23.350;2023-12-29T03:39:22;96076.81;;;4.40;60.79
78894;BME280;68282;42.698;23.350;2023-12-29T03:41:48;96067.09;;;4.31;60.86
78894;BME280;68282;42.698;23.350;2023-12-29T03:44:14;96075.66;;;4.35;61.07
78894;BME280;68282;42.698;23.350;2023-12-29T03:46:43;96086.97;;;4.30;61.03
78894;BME280;68282;42.698;23.350;2023-12-29T03:49:08;96102.63;;;4.26;61.14
78894;BME280;68282;42.698;23.350;2023-12-29T03:51:34;96106.19;;;4.27;61.37
78894;BME280;68282;42.698;23.350;2023-12-29T03:54:00;96098.22;;;4.33;60.93
78894;BME280;68282;42.698;23.350;2023-12-29T03:56:26;96108.00;;;4.35;60.91
78894;BME280;68282;42.698;23.350;2023-12-29T03:58:52;96093.38;;;4.29;60.83
78894;BME280;68282;42.698;23.350;2023-12-29T04:01:18;96098.59;;;4.30;60.71
78894;BME280;68282;42.698;23.350;2023-12-29T04:03:45;96084.66;;;4.27;60.99
78894;BME280;68282;42.698;23.350;2023-12-29T04:06:11;96099.81;;;4.20;60.82
78894;BME280;68282;42.698;23.350;2023-12-29T04:08:37;96083.19;;;3.93;61.36
78894;BME280;68282;42.698;23.350;2023-12-29T04:11:04;96090.13;;;4.10;61.19
78894;BME280;68282;42.698;23.350;2023-12-29T04:13:30;96102.84;;;4.25;60.53
78894;BME280;68282;42.698;23.350;2023-12-29T04:15:56;96108.56;;;4.22;60.66
78894;BME280;68282;42.698;23.350;2023-12-29T04:18:22;96105.75;;;4.15;60.40
78894;BME280;68282;42.698;23.350;2023-12-29T04:20:50;96098.59;;;4.07;60.73
78894;BME280;68282;42.698;23.350;2023-12-29T04:23:16;96103.59;;;4.10;60.13
78894;BME280;68282;42.698;23.350;2023-12-29T04:25:42;96090.69;;;4.06;60.46
78894;BME280;68282;42.698;23.350;2023-12-29T04:28:08;96093.56;;;4.04;60.65
78894;BME280;68282;42.698;23.350;2023-12-29T04:30:34;96079.50;;;3.94;60.55
78894;BME280;68282;42.698;23.350;2023-12-29T04:33:00;96080.69;;;3.91;60.07
78894;BME280;68282;42.698;23.350;2023-12-29T04:35:26;96088.59;;;3.93;60.66
78894;BME280;68282;42.698;23.350;2023-12-29T04:37:51;96103.09;;;3.83;60.67
78894;BME280;68282;42.698;23.350;2023-12-29T04:40:17;96105.06;;;3.90;61.11
78894;BME280;68282;42.698;23.350;2023-12-29T04:42:43;96111.31;;;3.90;60.50
78894;BME280;68282;42.698;23.350;2023-12-29T04:45:09;96108.97;;;3.87;60.20
78894;BME280;68282;42.698;23.350;2023-12-29T04:47:35;96088.84;;;3.75;60.17
78894;BME280;68282;42.698;23.350;2023-12-29T04:50:01;96102.78;;;3.78;59.85
78894;BME280;68282;42.698;23.350;2023-12-29T04:52:28;96100.28;;;3.77;60.45
78894;BME280;68282;42.698;23.350;2023-12-29T04:54:53;96086.50;;;3.71;60.16
78894;BME280;68282;42.698;23.350;2023-12-29T04:57:19;96094.38;;;3.81;60.13
78894;BME280;68282;42.698;23.350;2023-12-29T04:59:45;96075.25;;;3.68;60.66
78894;BME280;68282;42.698;23.350;2023-12-29T05:02:10;96091.69;;;3.81;60.59
78894;BME280;68282;42.698;23.350;2023-12-29T05:04:36;96086.97;;;3.75;61.00
78894;BME280;68282;42.698;23.350;2023-12-29T05:07:07;96082.75;;;3.81;61.04
78894;BME280;68282;42.698;23.350;2023-12-29T05:09:33;96072.91;;;3.65;60.66
78894;BME280;68282;42.698;23.350;2023-12-29T05:11:58;96076.47;;;3.65;60.77
78894;BME280;68282;42.698;23.350;2023-12-29T05:14:24;96066.91;;;3.63;60.51
78894;BME280;68282;42.698;23.350;2023-12-29T05:16:49;96073.72;;;3.74;60.76
78894;BME280;68282;42.698;23.350;2023-12-29T05:19:15;96076.13;;;3.60;61.04
78894;BME280;68282;42.698;23.350;2023-12-29T05:21:40;96080.88;;;3.58;60.71
78894;BME280;68282;42.698;23.350;2023-12-29T05:24:07;96083.72;;;3.56;60.56
78894;BME280;68282;42.698;23.350;2023-12-29T05:26:33;96095.88;;;3.52;60.15
78894;BME280;68282;42.698;23.350;2023-12-29T05:28:58;96082.16;;;3.39;60.46
78894;BME280;68282;42.698;23.350;2023-12-29T05:31:24;96087.84;;;3.36;60.53
78894;BME280;68282;42.698;23.350;2023-12-29T05:33:50;96097.94;;;3.34;60.66
78894;BME280;68282;42.698;23.350;2023-12-29T05:36:15;96079.84;;;3.28;60.75
78894;BME280;68282;42.698;23.350;2023-12-29T05:38:45;96095.88;;;3.44;60.97
78894;BME280;68282;42.698;23.350;2023-12-29T05:41:15;96096.06;;;3.43;61.03
78894;BME280;68282;42.698;23.350;2023-12-29T05:43:40;96086.50;;;3.40;61.02
78894;BME280;68282;42.698;23.350;2023-12-29T05:46:10;96095.72;;;3.46;60.68
78894;BME280;68282;42.698;23.350;2023-12-29T05:48:39;96091.53;;;3.43;60.88
78894;BME280;68282;42.698;23.350;2023-12-29T05:51:12;96077.78;;;3.38;61.45
78894;BME280;68282;42.698;23.350;2023-12-29T05:53:42;96076.63;;;3.32;60.72
78894;BME280;68282;42.698;23.350;2023-12-29T05:56:12;96090.88;;;3.41;60.66
78894;BME280;68282;42.698;23.350;2023-12-29T05:58:42;96078.78;;;3.37;60.93
78894;BME280;68282;42.698;23.350;2023-12-29T06:01:08;96085.84;;;3.38;61.02
78894;BME280;68282;42.698;23.350;2023-12-29T06:03:34;96081.47;;;3.37;61.09
78894;BME280;68282;42.698;23.350;2023-12-29T06:05:59;96081.28;;;3.38;60.17
78894;BME280;68282;42.698;23.350;2023-12-29T06:08:25;96093.44;;;3.34;60.35
78894;BME280;68282;42.698;23.350;2023-12-29T06:10:50;96085.69;;;3.31;60.46
78894;BME280;68282;42.698;23.350;2023-12-29T06:13:16;96079.78;;;3.36;60.50
78894;BME280;68282;42.698;23.350;2023-12-29T06:15:42;96073.59;;;3.27;61.13
78894;BME280;68282;42.698;23.350;2023-12-29T06:18:07;96074.47;;;3.28;60.12
78894;BME280;68282;42.698;23.350;2023-12-29T06:20:33;96084.16;;;3.37;59.85
78894;BME280;68282;42.698;23.350;2023-12-29T06:22:59;96087.16;;;3.42;60.22
78894;BME280;68282;42.698;23.350;2023-12-29T06:25:24;96081.78;;;3.42;59.43
78894;BME280;68282;42.698;23.350;2023-12-29T06:27:50;96088.00;;;3.43;59.45
78894;BME280;68282;42.698;23.350;2023-12-29T06:30:16;96085.31;;;3.43;59.30
78894;BME280;68282;42.698;23.350;2023-12-29T06:32:43;96080.47;;;3.38;59.32
78894;BME280;68282;42.698;23.350;2023-12-29T06:35:09;96084.16;;;3.37;59.70
78894;BME280;68282;42.698;23.350;2023-12-29T06:37:38;96092.22;;;3.37;59.50
78894;BME280;68282;42.698;23.350;2023-12-29T06:40:05;96089.53;;;3.37;59.65
78894;BME280;68282;42.698;23.350;2023-12-29T06:42:31;96087.03;;;3.35;60.07
78894;BME280;68282;42.698;23.350;2023-12-29T06:44:57;96086.19;;;3.35;59.59
78894;BME280;68282;42.698;23.350;2023-12-29T06:47:23;96084.03;;;3.30;60.06
78894;BME280;68282;42.698;23.350;2023-12-29T06:49:48;96089.91;;;3.25;60.01
78894;BME280;68282;42.698;23.350;2023-12-29T06:52:15;96091.78;;;3.25;60.03
78894;BME280;68282;42.698;23.350;2023-12-29T06:54:41;96096.31;;;3.24;60.57
78894;BME280;68282;42.698;23.350;2023-12-29T06:57:06;96094.25;;;3.35;60.60
78894;BME280;68282;42.698;23.350;2023-12-29T06:59:32;96096.94;;;3.35;60.46
78894;BME280;68282;42.698;23.350;2023-12-29T07:01:58;96093.56;;;3.41;60.08
78894;BME280;68282;42.698;23.350;2023-12-29T07:04:23;96093.38;;;3.43;60.01
78894;BME280;68282;42.698;23.350;2023-12-29T07:06:49;96096.88;;;3.51;60.47
78894;BME280;68282;42.698;23.350;2023-12-29T07:09:14;96095.88;;;3.52;59.74
78894;BME280;68282;42.698;23.350;2023-12-29T07:11:40;96087.44;;;3.55;60.20
78894;BME280;68282;42.698;23.350;2023-12-29T07:14:05;96097.19;;;3.56;59.86
78894;BME280;68282;42.698;23.350;2023-12-29T07:16:31;96091.13;;;3.63;60.06
78894;BME280;68282;42.698;23.350;2023-12-29T07:18:56;96090.25;;;3.62;59.93
78894;BME280;68282;42.698;23.350;2023-12-29T07:21:22;96089.59;;;3.60;60.74
78894;BME280;68282;42.698;23.350;2023-12-29T07:23:47;96084.72;;;3.64;60.41
78894;BME280;68282;42.698;23.350;2023-12-29T07:26:13;96090.22;;;3.70;59.97
78894;BME280;68282;42.698;23.350;2023-12-29T07:28:39;96084.00;;;3.70;60.68
78894;BME280;68282;42.698;23.350;2023-12-29T07:31:04;96085.94;;;3.84;60.38
78894;BME280;68282;42.698;23.350;2023-12-29T07:33:30;96073.44;;;3.92;60.12
78894;BME280;68282;42.698;23.350;2023-12-29T07:35:56;96076.81;;;3.94;60.51
78894;BME280;68282;42.698;23.350;2023-12-29T07:38:22;96079.38;;;3.87;60.27
78894;BME280;68282;42.698;23.350;2023-12-29T07:40:47;96081.88;;;3.89;60.41
78894;BME280;68282;42.698;23.350;2023-12-29T07:43:13;96070.41;;;3.95;59.78
78894;BME280;68282;42.698;23.350;2023-12-29T07:45:39;96073.97;;;4.10;59.40
78894;BME280;68282;42.698;23.350;2023-12-29T07:48:06;96068.59;;;4.10;59.55
78894;BME280;68282;42.698;23.350;2023-12-29T07:50:31;96078.94;;;4.22;59.22
78894;BME280;68282;42.698;23.350;2023-12-29T07:52:57;96076.66;;;4.10;59.62
78894;BME280;68282;42.698;23.350;2023-12-29T07:55:22;96085.75;;;4.09;59.51
78894;BME280;68282;42.698;23.350;2023-12-29T07:57:48;96087.50;;;3.79;60.37
78894;BME280;68282;42.698;23.350;2023-12-29T08:00:14;96093.84;;;3.86;59.59
78894;BME280;68282;42.698;23.350;2023-12-29T08:02:40;96088.44;;;3.63;59.31
78894;BME280;68282;42.698;23.350;2023-12-29T08:05:06;96083.66;;;3.73;59.22
78894;BME280;68282;42.698;23.350;2023-12-29T08:07:37;96086.63;;;3.78;59.32
78894;BME280;68282;42.698;23.350;2023-12-29T08:10:05;96097.19;;;3.88;59.22
78894;BME280;68282;42.698;23.350;2023-12-29T08:12:33;96084.81;;;3.79;58.90
78894;BME280;68282;42.698;23.350;2023-12-29T08:14:59;96095.84;;;3.84;59.31
78894;BME280;68282;42.698;23.350;2023-12-29T08:17:26;96093.03;;;3.77;59.76
78894;BME280;68282;42.698;23.350;2023-12-29T08:19:52;96096.19;;;3.81;59.52
78894;BME280;68282;42.698;23.350;2023-12-29T08:22:19;96094.03;;;3.84;59.84
78894;BME280;68282;42.698;23.350;2023-12-29T08:24:45;96097.66;;;3.92;59.99
78894;BME280;68282;42.698;23.350;2023-12-29T08:27:12;96086.59;;;3.86;59.75
78894;BME280;68282;42.698;23.350;2023-12-29T08:29:38;96105.00;;;3.98;60.08
78894;BME280;68282;42.698;23.350;2023-12-29T08:32:04;96094.69;;;4.10;59.49
78894;BME280;68282;42.698;23.350;2023-12-29T08:34:29;96098.19;;;4.18;59.69
78894;BME280;68282;42.698;23.350;2023-12-29T08:36:55;96092.88;;;4.25;59.34
78894;BME280;68282;42.698;23.350;2023-12-29T08:39:21;96086.59;;;4.33;59.61
78894;BME280;68282;42.698;23.350;2023-12-29T08:41:47;96089.28;;;4.33;59.43
78894;BME280;68282;42.698;23.350;2023-12-29T08:44:15;96089.34;;;4.48;59.07
78894;BME280;68282;42.698;23.350;2023-12-29T08:46:40;96083.06;;;4.56;59.28
78894;BME280;68282;42.698;23.350;2023-12-29T08:49:06;96085.03;;;4.62;59.22
78894;BME280;68282;42.698;23.350;2023-12-29T08:51:32;96081.91;;;4.73;59.26
78894;BME280;68282;42.698;23.350;2023-12-29T08:53:58;96085.16;;;4.84;59.63
78894;BME280;68282;42.698;23.350;2023-12-29T08:56:25;96088.13;;;4.89;58.99
78894;BME280;68282;42.698;23.350;2023-12-29T08:58:50;96078.38;;;5.03;59.00
78894;BME280;68282;42.698;23.350;2023-12-29T09:01:16;96085.53;;;5.10;58.66
78894;BME280;68282;42.698;23.350;2023-12-29T09:03:41;96090.38;;;5.15;58.84
78894;BME280;68282;42.698;23.350;2023-12-29T09:06:07;96092.81;;;5.25;58.29
78894;BME280;68282;42.698;23.350;2023-12-29T09:08:34;96089.56;;;5.30;58.69
78894;BME280;68282;42.698;23.350;2023-12-29T09:11:00;96080.91;;;5.34;58.60
78894;BME280;68282;42.698;23.350;2023-12-29T09:13:25;96078.38;;;5.48;58.02
78894;BME280;68282;42.698;23.350;2023-12-29T09:15:53;96075.84;;;5.61;57.91
78894;BME280;68282;42.698;23.350;2023-12-29T09:18:20;96072.03;;;5.70;58.04
78894;BME280;68282;42.698;23.350;2023-12-29T09:20:45;96064.16;;;5.76;57.97
78894;BME280;68282;42.698;23.350;2023-12-29T09:23:11;96045.19;;;5.84;57.83
78894;BME280;68282;42.698;23.350;2023-12-29T09:25:38;96035.66;;;5.88;57.94
78894;BME280;68282;42.698;23.350;2023-12-29T09:28:04;96044.47;;;5.97;57.39
78894;BME280;68282;42.698;23.350;2023-12-29T09:30:29;96039.44;;;6.09;57.85
78894;BME280;68282;42.698;23.350;2023-12-29T09:32:55;96049.13;;;6.25;57.74
78894;BME280;68282;42.698;23.350;2023-12-29T09:35:21;96047.84;;;6.42;57.53
78894;BME280;68282;42.698;23.350;2023-12-29T09:37:50;96048.50;;;6.44;58.01
78894;BME280;68282;42.698;23.350;2023-12-29T09:40:15;96048.16;;;6.54;57.91
78894;BME280;68282;42.698;23.350;2023-12-29T09:42:44;96047.31;;;6.54;58.06
78894;BME280;68282;42.698;23.350;2023-12-29T09:45:11;96037.59;;;6.59;57.45
78894;BME280;68282;42.698;23.350;2023-12-29T09:47:39;96033.59;;;6.55;57.88
78894;BME280;68282;42.698;23.350;2023-12-29T09:50:07;96036.97;;;6.57;58.08
78894;BME280;68282;42.698;23.350;2023-12-29T09:52:35;96037.84;;;6.64;58.10
78894;BME280;68282;42.698;23.350;2023-12-29T09:55:04;96025.00;;;6.73;57.96
78894;BME280;68282;42.698;23.350;2023-12-29T09:57:30;96019.28;;;6.83;58.11
78894;BME280;68282;42.698;23.350;2023-12-29T09:59:57;96017.66;;;6.95;57.68
78894;BME280;68282;42.698;23.350;2023-12-29T10:02:23;96011.78;;;6.85;57.59
78894;BME280;68282;42.698;23.350;2023-12-29T10:04:51;96015.38;;;6.92;57.66
78894;BME280;68282;42.698;23.350;2023-12-29T10:07:25;96009.31;;;6.90;57.69
78894;BME280;68282;42.698;23.350;2023-12-29T10:09:57;96020.78;;;6.92;57.56
78894;BME280;68282;42.698;23.350;2023-12-29T10:12:28;95986.78;;;6.76;57.89
78894;BME280;68282;42.698;23.350;2023-12-29T10:15:24;96000.25;;;7.05;57.24
78894;BME280;68282;42.698;23.350;2023-12-29T10:18:22;95993.03;;;7.19;57.50
78894;BME280;68282;42.698;23.350;2023-12-29T10:23:43;95968.50;;;7.27;56.61
78894;BME280;68282;42.698;23.350;2023-12-29T10:26:13;95966.66;;;7.34;56.56
78894;BME280;68282;42.698;23.350;2023-12-29T10:28:39;95952.09;;;7.35;56.94
78894;BME280;68282;42.698;23.350;2023-12-29T10:31:05;95948.59;;;7.41;56.31
78894;BME280;68282;42.698;23.350;2023-12-29T10:33:31;95948.41;;;7.50;56.55
78894;BME280;68282;42.698;23.350;2023-12-29T10:35:58;95947.44;;;7.71;56.59
78894;BME280;68282;42.698;23.350;2023-12-29T10:38:32;95950.13;;;7.84;56.07
78894;BME280;68282;42.698;23.350;2023-12-29T10:41:14;95951.19;;;7.97;55.79
78894;BME280;68282;42.698;23.350;2023-12-29T10:43:41;95939.34;;;8.04;55.63
78894;BME280;68282;42.698;23.350;2023-12-29T10:46:09;95930.38;;;8.17;55.61
78894;BME280;68282;42.698;23.350;2023-12-29T10:48:35;95928.94;;;8.28;55.20
78894;BME280;68282;42.698;23.350;2023-12-29T10:51:04;95912.66;;;8.35;54.94
78894;BME280;68282;42.698;23.350;2023-12-29T10:53:33;95923.94;;;8.52;55.48
78894;BME280;68282;42.698;23.350;2023-12-29T10:55:59;95914.75;;;8.60;55.37
78894;BME280;68282;42.698;23.350;2023-12-29T10:58:28;95911.41;;;8.64;55.57
78894;BME280;68282;42.698;23.350;2023-12-29T11:00:58;95897.22;;;8.56;54.95
78894;BME280;68282;42.698;23.350;2023-12-29T11:03:25;95891.16;;;8.60;54.47
78894;BME280;68282;42.698;23.350;2023-12-29T11:05:58;95898.44;;;8.66;54.91
78894;BME280;68282;42.698;23.350;2023-12-29T11:08:25;95898.47;;;8.60;55.33
78894;BME280;68282;42.698;23.350;2023-12-29T11:10:51;95889.25;;;8.74;54.70
78894;BME280;68282;42.698;23.350;2023-12-29T11:13:17;95882.53;;;8.84;54.86
78894;BME280;68282;42.698;23.350;2023-12-29T11:15:44;95877.31;;;8.89;55.11
78894;BME280;68282;42.698;23.350;2023-12-29T11:18:14;95877.28;;;8.95;55.00
78894;BME280;68282;42.698;23.350;2023-12-29T11:20:41;95878.50;;;9.06;55.43
78894;BME280;68282;42.698;23.350;2023-12-29T11:23:09;95870.75;;;9.10;55.04
78894;BME280;68282;42.698;23.350;2023-12-29T11:25:39;95868.81;;;9.24;54.77
78894;BME280;68282;42.698;23.350;2023-12-29T11:28:06;95877.75;;;9.31;54.07
78894;BME280;68282;42.698;23.350;2023-12-29T11:30:33;95868.53;;;9.39;54.24
78894;BME280;68282;42.698;23.350;2023-12-29T11:33:03;95864.72;;;9.47;54.27
78894;BME280;68282;42.698;23.350;2023-12-29T11:35:56;95864.81;;;9.65;54.08
78894;BME280;68282;42.698;23.350;2023-12-29T11:43:56;95843.22;;;10.02;53.02
78894;BME280;68282;42.698;23.350;2023-12-29T11:46:52;95845.59;;;10.17;52.76
78894;BME280;68282;42.698;23.350;2023-12-29T11:49:18;95836.91;;;10.27;52.08
78894;BME280;68282;42.698;23.350;2023-12-29T11:51:47;95841.00;;;10.36;51.96
78894;BME280;68282;42.698;23.350;2023-12-29T11:54:24;95844.31;;;10.45;52.30
78894;BME280;68282;42.698;23.350;2023-12-29T11:56:51;95841.75;;;10.50;52.17
78894;BME280;68282;42.698;23.350;2023-12-29T12:01:58;95834.50;;;10.63;51.68
78894;BME280;68282;42.698;23.350;2023-12-29T12:04:40;95825.50;;;10.62;52.50
78894;BME280;68282;42.698;23.350;2023-12-29T12:10:28;95820.22;;;10.67;51.96
78894;BME280;68282;42.698;23.350;2023-12-29T12:12:59;95825.81;;;10.73;51.82
78894;BME280;68282;42.698;23.350;2023-12-29T12:18:01;95824.91;;;10.79;52.03
78894;BME280;68282;42.698;23.350;2023-12-29T12:20:29;95826.09;;;10.83;52.00
78894;BME280;68282;42.698;23.350;2023-12-29T12:23:01;95817.31;;;10.81;51.97
78894;BME280;68282;42.698;23.350;2023-12-29T12:25:27;95818.63;;;10.78;52.16
78894;BME280;68282;42.698;23.350;2023-12-29T12:27:55;95822.78;;;10.81;51.99
78894;BME280;68282;42.698;23.350;2023-12-29T12:30:21;95832.47;;;10.77;51.70
78894;BME280;68282;42.698;23.350;2023-12-29T12:32:59;95813.13;;;10.66;51.93
78894;BME280;68282;42.698;23.350;2023-12-29T12:35:25;95811.09;;;10.62;52.41
78894;BME280;68282;42.698;23.350;2023-12-29T12:38:11;95819.44;;;10.60;52.79
78894;BME280;68282;42.698;23.350;2023-12-29T12:40:37;95837.31;;;10.56;52.81
78894;BME280;68282;42.698;23.350;2023-12-29T12:43:03;95830.03;;;10.50;53.00
78894;BME280;68282;42.698;23.350;2023-12-29T12:45:34;95818.72;;;10.53;52.55
78894;BME280;68282;42.698;23.350;2023-12-29T12:48:12;95810.38;;;10.48;52.30
78894;BME280;68282;42.698;23.350;2023-12-29T12:50:43;95821.19;;;10.55;52.78
78894;BME280;68282;42.698;23.350;2023-12-29T12:53:12;95810.53;;;10.53;52.85
78894;BME280;68282;42.698;23.350;2023-12-29T12:55:40;95814.09;;;10.54;52.52
78894;BME280;68282;42.698;23.350;2023-12-29T12:58:07;95811.97;;;10.56;52.95
78894;BME280;68282;42.698;23.350;2023-12-29T13:00:33;95814.94;;;10.54;53.00
78894;BME280;68282;42.698;23.350;2023-12-29T13:03:00;95803.75;;;10.44;52.88
78894;BME280;68282;42.698;23.350;2023-12-29T13:05:27;95809.13;;;10.50;52.80
78894;BME280;68282;42.698;23.350;2023-12-29T13:07:55;95821.59;;;10.58;52.95
78894;BME280;68282;42.698;23.350;2023-12-29T13:10:23;95816.16;;;10.58;52.72
78894;BME280;68282;42.698;23.350;2023-12-29T13:12:53;95805.09;;;10.53;53.28
78894;BME280;68282;42.698;23.350;2023-12-29T13:15:19;95798.44;;;10.49;52.88
78894;BME280;68282;42.698;23.350;2023-12-29T13:17:54;95807.22;;;10.51;53.19
78894;BME280;68282;42.698;23.350;2023-12-29T13:20:21;95811.22;;;10.48;53.25